createdAt,value
2018-03-04T00:00:19.392Z,38.20
2018-03-04T00:02:46.949Z,38.20
2018-03-04T00:05:14.447Z,38.50
2018-03-04T00:07:41.944Z,38.60
2018-03-04T00:10:10.987Z,38.50
2018-03-04T00:12:38.493Z,38.50
2018-03-04T00:15:06.102Z,38.50
2018-03-04T00:17:34.356Z,38.80
2018-03-04T00:20:01.962Z,38.70
2018-03-04T00:22:41.415Z,38.90
2018-03-04T00:25:09.716Z,38.90
2018-03-04T00:27:37.320Z,38.90
2018-03-04T00:30:04.839Z,38.90
2018-03-04T00:32:33.124Z,39.10
2018-03-04T00:35:02.450Z,39.20
2018-03-04T00:37:29.954Z,39.10
2018-03-04T00:39:57.477Z,39.20
2018-03-04T00:42:25.764Z,39.40
2018-03-04T00:44:53.347Z,39.40
2018-03-04T00:47:20.842Z,39.60
2018-03-04T00:49:48.475Z,39.80
2018-03-04T00:52:15.971Z,39.80
2018-03-04T00:54:43.495Z,39.60
2018-03-04T00:57:11.007Z,39.70
2018-03-04T00:59:39.272Z,39.90
2018-03-04T01:02:07.541Z,40.40
2018-03-04T01:04:35.063Z,39.80
2018-03-04T01:07:02.595Z,39.80
2018-03-04T01:09:30.084Z,39.90
2018-03-04T01:11:58.351Z,40.00
2018-03-04T01:14:25.866Z,40.00
2018-03-04T01:16:53.381Z,39.90
2018-03-04T01:19:20.881Z,39.90
2018-03-04T01:21:49.187Z,40.20
2018-03-04T01:24:16.701Z,40.10
2018-03-04T01:26:44.210Z,40.10
2018-03-04T01:29:12.508Z,40.20
2018-03-04T01:31:40.788Z,40.40
2018-03-04T01:34:09.076Z,40.60
2018-03-04T01:36:37.334Z,40.60
2018-03-04T01:39:04.856Z,40.60
2018-03-04T01:41:32.337Z,40.90
2018-03-04T01:43:59.831Z,40.80
2018-03-04T01:46:27.333Z,40.90
2018-03-04T01:48:55.621Z,40.70
2018-03-04T01:54:24.704Z,40.90
2018-03-04T01:56:52.196Z,40.90
2018-03-04T01:59:19.709Z,41.10
2018-03-04T02:01:47.274Z,41.20
2018-03-04T02:04:14.770Z,41.30
2018-03-04T02:06:42.324Z,41.20
2018-03-04T02:09:10.571Z,41.40
2018-03-04T02:11:38.072Z,41.40
2018-03-04T02:14:05.647Z,41.50
2018-03-04T02:16:33.944Z,41.50
2018-03-04T02:19:02.228Z,42.00
2018-03-04T02:21:30.521Z,41.60
2018-03-04T02:23:58.832Z,41.70
2018-03-04T02:26:26.341Z,42.20
2018-03-04T02:28:54.722Z,41.70
2018-03-04T02:31:22.251Z,41.80
2018-03-04T02:33:50.510Z,41.60
2018-03-04T02:36:18.126Z,41.50
2018-03-04T02:38:45.713Z,41.80
2018-03-04T02:41:13.303Z,41.60
2018-03-04T02:43:40.828Z,41.60
2018-03-04T02:46:09.091Z,41.80
2018-03-04T02:48:36.657Z,41.80
2018-03-04T02:51:04.285Z,41.80
2018-03-04T02:53:31.755Z,41.90
2018-03-04T02:55:59.247Z,42.00
2018-03-04T02:58:26.759Z,42.20
2018-03-04T03:00:55.042Z,42.20
2018-03-04T03:03:22.624Z,42.20
2018-03-04T03:05:51.014Z,42.70
2018-03-04T03:08:19.282Z,42.40
2018-03-04T03:10:46.826Z,42.30
2018-03-04T03:13:14.325Z,43.00
2018-03-04T03:15:41.877Z,42.80
2018-03-04T03:18:09.382Z,42.40
2018-03-04T03:20:37.657Z,42.50
2018-03-04T03:23:05.238Z,42.50
2018-03-04T03:25:33.515Z,42.20
2018-03-04T03:28:01.238Z,42.20
2018-03-04T03:30:28.781Z,42.30
2018-03-04T03:32:57.045Z,42.40
2018-03-04T03:35:24.601Z,42.40
2018-03-04T03:37:52.242Z,42.40
2018-03-04T03:40:19.737Z,42.40
2018-03-04T03:42:47.234Z,42.40
2018-03-04T03:45:15.484Z,42.60
2018-03-04T03:47:43.082Z,42.60
2018-03-04T03:50:10.569Z,42.70
2018-03-04T03:52:38.872Z,42.50
2018-03-04T03:55:07.140Z,42.60
2018-03-04T03:57:34.695Z,42.50
2018-03-04T04:00:02.214Z,42.70
2018-03-04T04:02:29.701Z,43.00
2018-03-04T04:04:57.207Z,42.80
2018-03-04T04:07:24.718Z,42.70
2018-03-04T04:09:52.996Z,42.50
2018-03-04T04:12:21.256Z,42.70
2018-03-04T04:14:48.778Z,42.60
2018-03-04T04:17:16.383Z,42.70
2018-03-04T04:19:43.911Z,42.90
2018-03-04T04:22:11.425Z,42.70
2018-03-04T04:24:38.939Z,42.80
2018-03-04T04:27:07.210Z,42.80
2018-03-04T04:29:34.748Z,42.80
2018-03-04T04:32:02.256Z,43.30
2018-03-04T04:34:29.736Z,42.60
2018-03-04T04:36:57.994Z,42.80
2018-03-04T04:39:25.477Z,42.80
2018-03-04T04:41:53.005Z,42.90
2018-03-04T04:44:20.543Z,43.00
2018-03-04T04:46:48.016Z,42.90
2018-03-04T04:49:16.294Z,43.20
2018-03-04T04:51:45.164Z,43.00
2018-03-04T04:54:12.662Z,43.00
2018-03-04T04:56:40.969Z,42.90
2018-03-04T04:59:08.527Z,42.90
2018-03-04T05:01:36.799Z,43.30
2018-03-04T05:04:04.321Z,43.30
2018-03-04T05:06:31.858Z,43.40
2018-03-04T05:09:00.129Z,43.60
2018-03-04T05:11:27.666Z,43.50
2018-03-04T05:13:55.173Z,43.60
2018-03-04T05:16:22.679Z,43.50
2018-03-04T05:18:50.255Z,43.90
2018-03-04T05:21:17.757Z,43.50
2018-03-04T05:23:45.294Z,43.60
2018-03-04T05:26:12.799Z,43.60
2018-03-04T05:28:40.295Z,43.60
2018-03-04T05:31:07.825Z,43.60
2018-03-04T05:33:35.327Z,44.00
2018-03-04T05:36:02.915Z,43.40
2018-03-04T05:38:30.414Z,43.40
2018-03-04T05:40:57.923Z,43.60
2018-03-04T05:43:25.519Z,43.70
2018-03-04T05:45:53.015Z,43.60
2018-03-04T05:48:20.528Z,43.60
2018-03-04T05:50:48.028Z,43.60
2018-03-04T05:53:15.528Z,43.80
2018-03-04T05:55:43.050Z,43.90
2018-03-04T05:58:10.526Z,44.60
2018-03-04T06:00:38.860Z,44.00
2018-03-04T06:03:06.356Z,44.00
2018-03-04T06:05:33.952Z,44.00
2018-03-04T06:08:01.462Z,44.00
2018-03-04T06:10:29.722Z,43.90
2018-03-04T06:12:57.206Z,43.90
2018-03-04T06:15:25.471Z,44.00
2018-03-04T06:17:52.956Z,44.00
2018-03-04T06:20:21.214Z,44.00
2018-03-04T06:22:48.809Z,44.40
2018-03-04T06:25:17.093Z,43.70
2018-03-04T06:27:44.582Z,43.70
2018-03-04T06:30:12.865Z,43.80
2018-03-04T06:32:41.270Z,43.80
2018-03-04T06:35:08.890Z,43.70
2018-03-04T06:37:36.385Z,43.80
2018-03-04T06:40:03.922Z,43.70
2018-03-04T06:42:31.416Z,43.70
2018-03-04T06:44:59.127Z,43.40
2018-03-04T06:47:27.389Z,43.70
2018-03-04T06:49:54.918Z,43.60
2018-03-04T06:52:22.474Z,43.60
2018-03-04T06:54:50.104Z,43.40
2018-03-04T06:57:17.602Z,43.50
2018-03-04T06:59:45.901Z,43.30
2018-03-04T07:02:13.417Z,43.30
2018-03-04T07:04:41.085Z,43.20
2018-03-04T07:07:08.586Z,43.00
2018-03-04T07:09:36.098Z,42.70
2018-03-04T07:12:03.585Z,43.40
2018-03-04T07:14:31.102Z,42.40
2018-03-04T07:16:59.385Z,42.10
2018-03-04T07:19:26.879Z,42.10
2018-03-04T07:21:54.436Z,42.20
2018-03-04T07:24:22.727Z,41.80
2018-03-04T07:26:51.759Z,41.30
2018-03-04T07:29:19.285Z,41.20
2018-03-04T07:31:46.792Z,40.80
2018-03-04T07:34:14.878Z,40.80
2018-03-04T07:36:42.509Z,40.70
2018-03-04T07:39:10.069Z,40.60
2018-03-04T07:41:37.574Z,40.70
2018-03-04T07:44:05.854Z,40.00
2018-03-04T07:46:34.136Z,39.70
2018-03-04T07:49:01.821Z,39.60
2018-03-04T07:51:29.364Z,39.50
2018-03-04T07:53:56.923Z,39.30
2018-03-04T07:56:24.583Z,39.30
2018-03-04T07:58:52.098Z,39.60
2018-03-04T08:01:19.697Z,39.40
2018-03-04T08:03:47.245Z,39.10
2018-03-04T08:06:15.566Z,38.50
2018-03-04T08:08:43.094Z,38.40
2018-03-04T08:11:10.790Z,38.30
2018-03-04T08:13:39.099Z,38.60
2018-03-04T08:16:06.629Z,38.50
2018-03-04T08:18:34.177Z,38.40
2018-03-04T08:21:01.671Z,38.30
2018-03-04T08:23:29.197Z,38.30
2018-03-04T08:26:08.707Z,38.10
2018-03-04T08:28:36.978Z,75.10
2018-03-04T08:31:04.702Z,74.90
2018-03-04T08:33:32.230Z,44.60
2018-03-04T08:35:59.788Z,38.00
2018-03-04T08:38:27.384Z,35.90
2018-03-04T08:40:55.703Z,36.10
2018-03-04T08:43:23.238Z,35.50
2018-03-04T08:45:50.837Z,35.90
2018-03-04T08:48:20.949Z,35.80
2018-03-04T08:50:48.666Z,35.60
2018-03-04T08:53:16.215Z,35.70
2018-03-04T08:55:43.790Z,35.70
2018-03-04T08:58:11.345Z,35.50
2018-03-04T09:00:39.620Z,35.70
2018-03-04T09:03:07.930Z,36.40
2018-03-04T09:05:36.227Z,35.90
2018-03-04T09:08:03.848Z,35.80
2018-03-04T09:10:31.372Z,35.90
2018-03-04T09:13:00.111Z,35.50
2018-03-04T09:15:27.665Z,35.90
2018-03-04T09:17:55.216Z,36.10
2018-03-04T09:20:22.811Z,35.40
2018-03-04T09:22:50.342Z,35.30
2018-03-04T09:25:18.626Z,35.30
2018-03-04T09:27:47.058Z,34.80
2018-03-04T09:30:14.578Z,34.70
2018-03-04T09:32:42.142Z,34.30
2018-03-04T09:35:09.764Z,33.60
2018-03-04T09:37:37.272Z,33.70
2018-03-04T09:40:06.304Z,33.40
2018-03-04T09:42:34.721Z,33.80
2018-03-04T09:45:02.295Z,33.80
2018-03-04T09:47:29.843Z,33.90
2018-03-04T09:49:57.431Z,33.80
2018-03-04T09:52:24.951Z,32.70
2018-03-04T09:54:52.525Z,32.10
2018-03-04T09:57:20.073Z,31.90
2018-03-04T09:59:47.585Z,32.10
2018-03-04T10:02:15.139Z,31.40
2018-03-04T10:04:42.727Z,30.90
2018-03-04T10:07:10.327Z,30.60
2018-03-04T10:09:37.824Z,29.80
2018-03-04T10:12:05.405Z,29.90
2018-03-04T10:14:32.923Z,29.40
2018-03-04T10:17:01.214Z,28.90
2018-03-04T10:19:29.490Z,28.90
2018-03-04T10:21:57.049Z,28.80
2018-03-04T10:24:24.554Z,28.30
2018-03-04T10:26:52.117Z,28.00
2018-03-04T10:29:20.366Z,27.60
2018-03-04T10:31:47.895Z,27.60
2018-03-04T10:34:15.444Z,27.00
2018-03-04T10:36:43.718Z,26.40
2018-03-04T10:39:12.056Z,26.30
2018-03-04T10:41:39.671Z,26.30
2018-03-04T10:44:07.184Z,25.30
2018-03-04T10:46:34.744Z,25.00
2018-03-04T10:49:03.112Z,24.40
2018-03-04T10:51:30.643Z,24.30
2018-03-04T10:53:58.164Z,24.00
2018-03-04T10:56:26.463Z,23.50
2018-03-04T10:58:54.743Z,23.20
2018-03-04T11:01:28.913Z,22.90
2018-03-04T11:03:56.494Z,22.80
2018-03-04T11:06:23.938Z,22.60
2018-03-04T11:08:51.513Z,22.20
2018-03-04T11:11:19.053Z,22.10
2018-03-04T11:13:47.322Z,21.90
2018-03-04T11:16:15.095Z,21.80
2018-03-04T11:18:42.629Z,21.30
2018-03-04T11:21:10.150Z,20.80
2018-03-04T11:23:37.953Z,20.70
2018-03-04T11:26:06.216Z,20.60
2018-03-04T11:28:33.801Z,20.60
2018-03-04T11:31:01.290Z,20.30
2018-03-04T11:33:28.847Z,20.40
2018-03-04T11:35:57.236Z,20.00
2018-03-04T11:38:25.531Z,19.90
2018-03-04T11:40:53.808Z,20.20
2018-03-04T11:43:22.090Z,20.20
2018-03-04T11:45:50.081Z,20.10
2018-03-04T11:48:18.350Z,19.90
2018-03-04T11:50:45.896Z,19.80
2018-03-04T11:53:13.792Z,19.50
2018-03-04T11:55:41.348Z,19.40
2018-03-04T11:58:08.837Z,19.40
2018-03-04T12:00:36.358Z,19.30
2018-03-04T12:03:03.858Z,19.10
2018-03-04T12:05:31.496Z,19.10
2018-03-04T12:07:59.012Z,19.30
2018-03-04T12:10:26.535Z,19.00
2018-03-04T12:12:54.048Z,19.40
2018-03-04T12:15:21.690Z,19.00
2018-03-04T12:17:49.494Z,19.20
2018-03-04T12:20:17.030Z,19.30
2018-03-04T12:22:44.609Z,19.50
2018-03-04T12:25:12.165Z,19.10
2018-03-04T12:27:39.749Z,19.20
2018-03-04T12:30:07.258Z,19.00
2018-03-04T12:32:34.763Z,19.00
2018-03-04T12:35:03.043Z,18.90
2018-03-04T12:37:31.314Z,19.00
2018-03-04T12:39:58.980Z,19.00
2018-03-04T12:42:26.498Z,19.00
2018-03-04T12:44:54.224Z,19.20
2018-03-04T12:47:21.717Z,19.10
2018-03-04T12:49:49.323Z,19.20
2018-03-04T12:52:17.096Z,19.30
2018-03-04T12:54:44.661Z,19.10
2018-03-04T12:57:13.043Z,19.30
2018-03-04T12:59:41.354Z,19.10
2018-03-04T13:02:08.885Z,19.10
2018-03-04T13:04:36.433Z,19.30
2018-03-04T13:07:04.169Z,19.40
2018-03-04T13:09:31.675Z,19.60
2018-03-04T13:11:59.194Z,19.80
2018-03-04T13:14:27.552Z,19.80
2018-03-04T13:16:55.093Z,19.80
2018-03-04T13:19:22.685Z,19.80
2018-03-04T13:21:50.306Z,19.90
2018-03-04T13:24:18.579Z,20.20
2018-03-04T13:26:46.861Z,20.10
2018-03-04T13:29:15.192Z,19.80
2018-03-04T13:31:42.739Z,19.80
2018-03-04T13:34:11.245Z,20.10
2018-03-04T13:36:39.633Z,20.00
2018-03-04T13:39:07.424Z,20.20
2018-03-04T13:41:34.979Z,20.00
2018-03-04T13:44:02.585Z,20.20
2018-03-04T13:46:30.193Z,20.60
2018-03-04T13:48:57.727Z,20.90
2018-03-04T13:51:25.475Z,21.00
2018-03-04T13:53:53.047Z,21.20
2018-03-04T13:56:20.656Z,21.10
2018-03-04T13:58:48.197Z,21.10
2018-03-04T14:01:15.748Z,21.30
2018-03-04T14:03:44.044Z,21.40
2018-03-04T14:06:12.342Z,21.30
2018-03-04T14:08:39.995Z,21.30
2018-03-04T14:11:07.586Z,21.30
2018-03-04T14:13:35.326Z,21.30
2018-03-04T14:16:03.086Z,21.40
2018-03-04T14:18:30.610Z,21.40
2018-03-04T14:20:58.127Z,21.50
2018-03-04T14:23:25.669Z,21.60
2018-03-04T14:25:53.207Z,21.40
2018-03-04T14:28:21.516Z,21.60
2018-03-04T14:30:49.270Z,21.60
2018-03-04T14:33:17.537Z,22.20
2018-03-04T14:35:45.643Z,22.20
2018-03-04T14:38:13.911Z,22.70
2018-03-04T14:40:41.505Z,22.60
2018-03-04T14:43:09.861Z,22.70
2018-03-04T14:45:37.478Z,22.60
2018-03-04T14:48:05.762Z,22.80
2018-03-04T14:50:34.054Z,22.90
2018-03-04T14:53:02.320Z,23.00
2018-03-04T14:55:29.837Z,22.90
2018-03-04T14:57:57.331Z,23.00
2018-03-04T15:00:24.851Z,23.20
2018-03-04T15:02:53.108Z,23.50
2018-03-04T15:05:21.413Z,23.70
2018-03-04T15:07:49.810Z,24.30
2018-03-04T15:10:18.114Z,23.90
2018-03-04T15:12:46.412Z,24.10
2018-03-04T15:15:14.088Z,24.10
2018-03-04T15:17:41.608Z,24.80
2018-03-04T15:20:09.127Z,24.60
2018-03-04T15:22:36.621Z,24.80
2018-03-04T15:25:04.142Z,24.60
2018-03-04T15:27:32.435Z,24.60
2018-03-04T15:30:00.750Z,24.70
2018-03-04T15:32:28.291Z,24.70
2018-03-04T15:34:56.568Z,24.80
2018-03-04T15:37:24.099Z,24.70
2018-03-04T15:39:51.626Z,24.90
2018-03-04T15:42:19.885Z,24.90
2018-03-04T15:44:47.468Z,24.90
2018-03-04T15:47:15.764Z,25.10
2018-03-04T15:49:44.175Z,25.20
2018-03-04T15:52:11.796Z,25.20
2018-03-04T15:54:39.350Z,25.30
2018-03-04T15:57:06.938Z,25.40
2018-03-04T15:59:34.475Z,25.60
2018-03-04T16:02:02.018Z,25.50
2018-03-04T16:04:30.445Z,25.70
2018-03-04T16:06:57.943Z,25.60
2018-03-04T16:09:25.491Z,25.60
2018-03-04T16:11:53.146Z,25.60
2018-03-04T16:14:20.695Z,25.70
2018-03-04T16:16:49.016Z,25.70
2018-03-04T16:19:16.685Z,25.70
2018-03-04T16:21:44.830Z,25.60
2018-03-04T16:24:12.397Z,25.70
2018-03-04T16:26:40.693Z,26.00
2018-03-04T16:29:09.025Z,26.00
2018-03-04T16:31:36.587Z,26.00
2018-03-04T16:34:04.189Z,26.10
2018-03-04T16:36:31.727Z,26.10
2018-03-04T16:38:59.284Z,26.30
2018-03-04T16:41:27.586Z,26.50
2018-03-04T16:43:55.219Z,26.50
2018-03-04T16:46:22.813Z,26.60
2018-03-04T16:48:51.202Z,26.90
2018-03-04T16:51:19.633Z,27.40
2018-03-04T16:53:47.271Z,26.90
2018-03-04T16:56:15.817Z,27.00
2018-03-04T16:58:43.766Z,27.00
2018-03-04T17:01:11.354Z,27.10
2018-03-04T17:03:39.012Z,27.30
2018-03-04T17:06:06.690Z,27.10
2018-03-04T17:08:34.357Z,27.10
2018-03-04T17:11:01.923Z,26.90
2018-03-04T17:13:30.636Z,27.00
2018-03-04T17:15:58.224Z,26.90
2018-03-04T17:18:25.931Z,27.40
2018-03-04T17:20:53.650Z,27.20
2018-03-04T17:23:21.331Z,27.10
2018-03-04T17:25:49.461Z,27.00
2018-03-04T17:28:17.044Z,27.00
2018-03-04T17:30:44.613Z,27.10
2018-03-04T17:33:12.170Z,27.30
2018-03-04T17:35:39.754Z,27.30
2018-03-04T17:38:07.474Z,27.20
2018-03-04T17:40:35.061Z,27.20
2018-03-04T17:43:02.632Z,27.20
2018-03-04T17:45:30.225Z,27.10
2018-03-04T17:47:58.039Z,27.10
2018-03-04T17:50:26.516Z,27.70
2018-03-04T17:52:54.122Z,27.20
2018-03-04T17:55:22.296Z,27.20
2018-03-04T17:57:50.658Z,27.00
2018-03-04T18:00:18.194Z,27.00
2018-03-04T18:02:45.762Z,27.10
2018-03-04T18:05:13.482Z,27.20
2018-03-04T18:07:41.801Z,27.20
2018-03-04T18:10:10.191Z,27.20
2018-03-04T18:12:38.551Z,27.20
2018-03-04T18:15:06.086Z,27.20
2018-03-04T18:17:34.556Z,27.20
2018-03-04T18:20:02.121Z,27.20
2018-03-04T18:22:29.796Z,27.20
2018-03-04T18:24:57.361Z,27.30
2018-03-04T18:27:24.990Z,27.40
2018-03-04T18:29:52.600Z,27.40
2018-03-04T18:32:20.920Z,27.40
2018-03-04T18:34:48.588Z,27.30
2018-03-04T18:37:16.480Z,27.50
2018-03-04T18:39:44.038Z,27.40
2018-03-04T18:42:11.938Z,27.50
2018-03-04T18:44:39.530Z,27.70
2018-03-04T18:47:07.224Z,27.70
2018-03-04T18:49:35.528Z,27.80
2018-03-04T18:52:04.297Z,27.70
2018-03-04T18:54:31.888Z,27.70
2018-03-04T18:57:00.309Z,28.10
2018-03-04T18:59:27.896Z,28.10
2018-03-04T19:01:55.508Z,27.90
2018-03-04T19:04:23.349Z,28.00
2018-03-04T19:06:50.952Z,27.90
2018-03-04T19:09:18.575Z,28.00
2018-03-04T19:11:46.152Z,28.60
2018-03-04T19:14:13.712Z,28.10
2018-03-04T19:16:41.362Z,28.10
2018-03-04T19:19:09.070Z,28.20
2018-03-04T19:21:36.798Z,28.20
2018-03-04T19:24:04.366Z,28.10
2018-03-04T19:26:31.975Z,28.20
2018-03-04T19:29:00.275Z,28.40
2018-03-04T19:31:27.873Z,28.40
2018-03-04T19:33:55.735Z,28.70
2018-03-04T19:36:23.298Z,28.90
2018-03-04T19:38:50.906Z,28.60
2018-03-04T19:41:18.706Z,28.60
2018-03-04T19:43:46.518Z,28.70
2018-03-04T19:46:15.242Z,28.80
2018-03-04T19:48:43.210Z,29.20
2018-03-04T19:51:11.055Z,28.90
2018-03-04T19:53:40.708Z,28.70
2018-03-04T19:56:08.493Z,28.70
2018-03-04T19:58:36.296Z,28.70
2018-03-04T20:01:05.983Z,29.00
2018-03-04T20:03:34.484Z,28.90
2018-03-04T20:06:02.176Z,29.10
2018-03-04T20:08:29.784Z,29.00
2018-03-04T20:10:57.386Z,29.10
2018-03-04T20:13:25.275Z,29.20
2018-03-04T20:15:52.903Z,29.20
2018-03-04T20:18:20.823Z,29.20
2018-03-04T20:20:48.493Z,29.40
2018-03-04T20:23:16.287Z,29.40
2018-03-04T20:25:46.144Z,29.60
2018-03-04T20:30:47.831Z,29.60
2018-03-04T20:33:15.703Z,29.80
2018-03-04T20:35:43.466Z,29.60
2018-03-04T20:38:11.249Z,29.60
2018-03-04T20:40:38.894Z,29.60
2018-03-04T20:43:06.795Z,29.60
2018-03-04T20:45:34.567Z,29.70
2018-03-04T20:48:02.478Z,29.70
2018-03-04T20:50:30.538Z,29.70
2018-03-04T20:52:58.412Z,29.80
2018-03-04T20:55:26.299Z,29.80
2018-03-04T20:57:54.172Z,30.00
2018-03-04T21:00:22.049Z,29.90
2018-03-04T21:02:49.703Z,30.00
2018-03-04T21:05:17.810Z,30.00
2018-03-04T21:07:45.793Z,30.00
2018-03-04T21:10:13.603Z,30.00
2018-03-04T21:12:41.393Z,30.10
2018-03-04T21:15:09.741Z,30.10
2018-03-04T21:17:37.408Z,30.00
2018-03-04T21:20:05.006Z,30.10
2018-03-04T21:22:32.692Z,30.20
2018-03-04T21:25:00.529Z,30.30
2018-03-04T21:27:28.308Z,30.40
2018-03-04T21:29:55.897Z,30.30
2018-03-04T21:32:23.490Z,30.30
2018-03-04T21:34:51.081Z,30.50
2018-03-04T21:37:20.546Z,30.50
2018-03-04T21:39:48.108Z,30.40
2018-03-04T21:42:15.634Z,30.60
2018-03-04T21:44:44.536Z,30.70
2018-03-04T21:47:13.065Z,30.70
2018-03-04T21:49:40.718Z,30.50
2018-03-04T21:52:09.155Z,30.90
2018-03-04T21:54:36.665Z,30.60
2018-03-04T21:57:04.296Z,30.60
2018-03-04T21:59:31.968Z,30.60
2018-03-04T22:01:59.525Z,46.70
2018-03-04T22:04:27.142Z,57.40
2018-03-04T22:06:54.756Z,47.80
2018-03-04T22:09:23.032Z,28.40
2018-03-04T22:11:50.619Z,28.40
2018-03-04T22:14:18.878Z,28.60
2018-03-04T22:16:46.511Z,28.60
2018-03-04T22:19:14.086Z,29.40
2018-03-04T22:21:41.660Z,29.40
2018-03-04T22:24:09.152Z,29.60
2018-03-04T22:26:36.798Z,29.90
2018-03-04T22:29:04.302Z,30.00
2018-03-04T22:31:32.562Z,30.20
2018-03-04T22:34:00.119Z,30.30
2018-03-04T22:36:27.661Z,30.40
2018-03-04T22:38:55.940Z,30.60
2018-03-04T22:41:23.552Z,30.60
2018-03-04T22:43:51.124Z,30.70
2018-03-04T22:46:18.620Z,30.90
2018-03-04T22:48:46.318Z,31.00
2018-03-04T22:51:14.585Z,31.10
2018-03-04T22:53:42.243Z,31.20
2018-03-04T22:56:09.787Z,31.10
2018-03-04T22:58:37.291Z,31.20
2018-03-04T23:01:04.894Z,31.30
2018-03-04T23:03:32.394Z,31.40
2018-03-04T23:06:00.670Z,31.50
2018-03-04T23:08:28.994Z,31.60
2018-03-04T23:10:56.545Z,31.60
2018-03-04T23:13:24.809Z,31.80
2018-03-04T23:15:53.099Z,31.90
2018-03-04T23:18:20.596Z,31.80
2018-03-04T23:20:48.175Z,31.80
2018-03-04T23:23:15.811Z,31.70
2018-03-04T23:25:43.388Z,31.80
2018-03-04T23:28:11.704Z,32.00
2018-03-04T23:30:39.965Z,32.50
2018-03-04T23:33:08.228Z,32.00
2018-03-04T23:35:35.958Z,31.90
2018-03-04T23:38:03.478Z,32.00
2018-03-04T23:40:31.045Z,32.10
2018-03-04T23:42:58.557Z,32.20
2018-03-04T23:45:26.845Z,32.20
2018-03-04T23:47:55.321Z,32.30
2018-03-04T23:50:22.838Z,32.30
2018-03-04T23:52:50.383Z,32.40
2018-03-04T23:55:17.913Z,32.40
2018-03-04T23:57:45.523Z,32.40
